sensor_id;sensor_type;location;lat;lon;timestamp;P1;durP1;ratioP1;P2;durP2;ratioP2
78143;SDS011;67394;52.522;13.622;2023-09-08T00:02:14;8.77;;;6.63;;
78143;SDS011;67394;52.522;13.622;2023-09-08T00:07:07;10.05;;;6.95;;
78143;SDS011;67394;52.522;13.622;2023-09-08T00:09:34;8.43;;;6.20;;
78143;SDS011;67394;52.522;13.622;2023-09-08T00:12:02;9.23;;;7.25;;
78143;SDS011;67394;52.522;13.622;2023-09-08T00:14:29;9.40;;;6.70;;
78143;SDS011;67394;52.522;13.622;2023-09-08T00:16:57;9.55;;;6.82;;
78143;SDS011;67394;52.522;13.622;2023-09-08T00:21:52;7.45;;;5.95;;
78143;SDS011;67394;52.522;13.622;2023-09-08T00:24:20;8.65;;;7.00;;
78143;SDS011;67394;52.522;13.622;2023-09-08T00:26:46;8.65;;;6.65;;
78143;SDS011;67394;52.522;13.622;2023-09-08T00:29:14;10.88;;;6.70;;
78143;SDS011;67394;52.522;13.622;2023-09-08T00:31:42;10.75;;;6.80;;
78143;SDS011;67394;52.522;13.622;2023-09-08T00:34:08;9.52;;;6.82;;
78143;SDS011;67394;52.522;13.622;2023-09-08T00:36:36;9.32;;;7.00;;
78143;SDS011;67394;52.522;13.622;2023-09-08T00:39:03;9.55;;;6.90;;
78143;SDS011;67394;52.522;13.622;2023-09-08T00:41:31;9.75;;;6.93;;
78143;SDS011;67394;52.522;13.622;2023-09-08T00:43:59;10.02;;;6.78;;
78143;SDS011;67394;52.522;13.622;2023-09-08T00:46:27;10.25;;;6.70;;
78143;SDS011;67394;52.522;13.622;2023-09-08T00:48:54;8.75;;;6.40;;
78143;SDS011;67394;52.522;13.622;2023-09-08T00:51:21;8.20;;;7.00;;
78143;SDS011;67394;52.522;13.622;2023-09-08T00:53:48;8.07;;;6.70;;
78143;SDS011;67394;52.522;13.622;2023-09-08T00:56:17;8.25;;;7.03;;
78143;SDS011;67394;52.522;13.622;2023-09-08T00:58:45;9.65;;;5.93;;
78143;SDS011;67394;52.522;13.622;2023-09-08T01:01:12;8.93;;;7.05;;
78143;SDS011;67394;52.522;13.622;2023-09-08T01:03:39;10.88;;;7.32;;
78143;SDS011;67394;52.522;13.622;2023-09-08T01:06:07;7.95;;;6.60;;
78143;SDS011;67394;52.522;13.622;2023-09-08T01:08:34;10.55;;;7.20;;
78143;SDS011;67394;52.522;13.622;2023-09-08T01:11:03;10.48;;;6.57;;
78143;SDS011;67394;52.522;13.622;2023-09-08T01:13:30;8.73;;;7.03;;
78143;SDS011;67394;52.522;13.622;2023-09-08T01:15:58;9.88;;;7.50;;
78143;SDS011;67394;52.522;13.622;2023-09-08T01:18:26;10.95;;;7.75;;
78143;SDS011;67394;52.522;13.622;2023-09-08T01:26:17;10.77;;;7.75;;
78143;SDS011;67394;52.522;13.622;2023-09-08T01:31:17;9.50;;;6.90;;
78143;SDS011;67394;52.522;13.622;2023-09-08T01:33:45;9.27;;;7.10;;
78143;SDS011;67394;52.522;13.622;2023-09-08T01:36:13;8.55;;;7.30;;
78143;SDS011;67394;52.522;13.622;2023-09-08T01:38:40;9.10;;;7.07;;
78143;SDS011;67394;52.522;13.622;2023-09-08T01:41:07;8.45;;;7.25;;
78143;SDS011;67394;52.522;13.622;2023-09-08T01:43:36;9.93;;;7.22;;
78143;SDS011;67394;52.522;13.622;2023-09-08T01:46:03;8.90;;;6.97;;
78143;SDS011;67394;52.522;13.622;2023-09-08T01:48:32;10.18;;;7.68;;
78143;SDS011;67394;52.522;13.622;2023-09-08T01:50:59;14.20;;;7.57;;
78143;SDS011;67394;52.522;13.622;2023-09-08T01:53:26;10.43;;;7.47;;
78143;SDS011;67394;52.522;13.622;2023-09-08T01:55:54;10.82;;;8.25;;
78143;SDS011;67394;52.522;13.622;2023-09-08T01:58:21;10.93;;;7.25;;
78143;SDS011;67394;52.522;13.622;2023-09-08T02:00:49;10.50;;;8.55;;
78143;SDS011;67394;52.522;13.622;2023-09-08T02:03:16;8.95;;;7.20;;
78143;SDS011;67394;52.522;13.622;2023-09-08T02:05:43;8.68;;;7.22;;
78143;SDS011;67394;52.522;13.622;2023-09-08T02:08:12;9.82;;;7.60;;
78143;SDS011;67394;52.522;13.622;2023-09-08T02:10:39;9.07;;;7.22;;
78143;SDS011;67394;52.522;13.622;2023-09-08T02:13:06;9.02;;;7.95;;
78143;SDS011;67394;52.522;13.622;2023-09-08T02:15:34;10.35;;;7.93;;
78143;SDS011;67394;52.522;13.622;2023-09-08T02:18:03;10.93;;;8.15;;
78143;SDS011;67394;52.522;13.622;2023-09-08T02:22:57;12.00;;;7.40;;
78143;SDS011;67394;52.522;13.622;2023-09-08T02:25:24;11.77;;;7.57;;
78143;SDS011;67394;52.522;13.622;2023-09-08T02:27:50;13.13;;;7.97;;
78143;SDS011;67394;52.522;13.622;2023-09-08T02:30:18;10.75;;;7.60;;
78143;SDS011;67394;52.522;13.622;2023-09-08T02:32:45;11.68;;;7.82;;
78143;SDS011;67394;52.522;13.622;2023-09-08T02:35:13;9.52;;;7.78;;
78143;SDS011;67394;52.522;13.622;2023-09-08T02:37:40;9.65;;;8.32;;
78143;SDS011;67394;52.522;13.622;2023-09-08T02:40:07;10.55;;;7.95;;
78143;SDS011;67394;52.522;13.622;2023-09-08T02:42:33;11.02;;;8.25;;
78143;SDS011;67394;52.522;13.622;2023-09-08T02:45:00;9.57;;;8.25;;
78143;SDS011;67394;52.522;13.622;2023-09-08T02:47:27;10.35;;;7.97;;
78143;SDS011;67394;52.522;13.622;2023-09-08T02:49:55;10.93;;;8.00;;
78143;SDS011;67394;52.522;13.622;2023-09-08T02:52:22;9.98;;;8.38;;
78143;SDS011;67394;52.522;13.622;2023-09-08T02:54:50;10.45;;;7.65;;
78143;SDS011;67394;52.522;13.622;2023-09-08T02:57:17;11.00;;;8.02;;
78143;SDS011;67394;52.522;13.622;2023-09-08T02:59:49;12.50;;;8.60;;
78143;SDS011;67394;52.522;13.622;2023-09-08T03:02:20;12.27;;;8.63;;
78143;SDS011;67394;52.522;13.622;2023-09-08T03:04:47;12.02;;;8.23;;
78143;SDS011;67394;52.522;13.622;2023-09-08T03:07:14;11.95;;;8.70;;
78143;SDS011;67394;52.522;13.622;2023-09-08T03:09:43;11.48;;;8.70;;
78143;SDS011;67394;52.522;13.622;2023-09-08T03:12:12;10.98;;;8.65;;
78143;SDS011;67394;52.522;13.622;2023-09-08T03:14:39;9.40;;;7.88;;
78143;SDS011;67394;52.522;13.622;2023-09-08T03:17:06;11.15;;;7.82;;
78143;SDS011;67394;52.522;13.622;2023-09-08T03:19:33;11.27;;;8.52;;
78143;SDS011;67394;52.522;13.622;2023-09-08T03:21:59;12.25;;;9.43;;
78143;SDS011;67394;52.522;13.622;2023-09-08T03:24:26;12.63;;;9.20;;
78143;SDS011;67394;52.522;13.622;2023-09-08T03:26:54;15.93;;;9.38;;
78143;SDS011;67394;52.522;13.622;2023-09-08T03:29:21;13.63;;;9.43;;
78143;SDS011;67394;52.522;13.622;2023-09-08T03:31:48;13.50;;;9.35;;
78143;SDS011;67394;52.522;13.622;2023-09-08T03:34:15;11.05;;;8.52;;
78143;SDS011;67394;52.522;13.622;2023-09-08T03:36:42;11.70;;;8.32;;
78143;SDS011;67394;52.522;13.622;2023-09-08T03:39:09;12.88;;;8.80;;
78143;SDS011;67394;52.522;13.622;2023-09-08T03:41:37;11.43;;;8.02;;
78143;SDS011;67394;52.522;13.622;2023-09-08T03:44:03;11.75;;;9.00;;
78143;SDS011;67394;52.522;13.622;2023-09-08T03:46:31;13.23;;;9.00;;
78143;SDS011;67394;52.522;13.622;2023-09-08T03:48:57;10.43;;;8.00;;
78143;SDS011;67394;52.522;13.622;2023-09-08T03:51:24;13.27;;;9.48;;
78143;SDS011;67394;52.522;13.622;2023-09-08T03:53:52;11.07;;;8.82;;
78143;SDS011;67394;52.522;13.622;2023-09-08T03:56:18;14.13;;;9.10;;
78143;SDS011;67394;52.522;13.622;2023-09-08T03:58:45;11.43;;;8.80;;
78143;SDS011;67394;52.522;13.622;2023-09-08T04:01:11;12.27;;;8.75;;
78143;SDS011;67394;52.522;13.622;2023-09-08T04:03:39;10.25;;;8.13;;
78143;SDS011;67394;52.522;13.622;2023-09-08T04:06:06;13.07;;;8.43;;
78143;SDS011;67394;52.522;13.622;2023-09-08T04:08:33;11.25;;;8.45;;
78143;SDS011;67394;52.522;13.622;2023-09-08T04:13:26;11.32;;;8.75;;
78143;SDS011;67394;52.522;13.622;2023-09-08T04:15:53;12.43;;;8.50;;
78143;SDS011;67394;52.522;13.622;2023-09-08T04:18:20;11.98;;;9.38;;
78143;SDS011;67394;52.522;13.622;2023-09-08T04:20:48;13.23;;;8.93;;
78143;SDS011;67394;52.522;13.622;2023-09-08T04:23:15;11.23;;;7.85;;
78143;SDS011;67394;52.522;13.622;2023-09-08T04:25:41;11.82;;;8.40;;
78143;SDS011;67394;52.522;13.622;2023-09-08T04:28:08;11.23;;;8.70;;
78143;SDS011;67394;52.522;13.622;2023-09-08T04:30:36;10.50;;;8.18;;
78143;SDS011;67394;52.522;13.622;2023-09-08T04:33:02;12.85;;;9.18;;
78143;SDS011;67394;52.522;13.622;2023-09-08T04:35:29;14.20;;;9.15;;
78143;SDS011;67394;52.522;13.622;2023-09-08T04:37:59;11.35;;;8.63;;
78143;SDS011;67394;52.522;13.622;2023-09-08T04:40:29;13.73;;;9.10;;
78143;SDS011;67394;52.522;13.622;2023-09-08T04:42:59;13.43;;;9.25;;
78143;SDS011;67394;52.522;13.622;2023-09-08T04:45:25;12.23;;;9.65;;
78143;SDS011;67394;52.522;13.622;2023-09-08T04:47:52;10.93;;;9.02;;
78143;SDS011;67394;52.522;13.622;2023-09-08T04:50:19;10.48;;;8.82;;
78143;SDS011;67394;52.522;13.622;2023-09-08T04:52:45;11.75;;;8.75;;
78143;SDS011;67394;52.522;13.622;2023-09-08T04:55:12;12.52;;;8.30;;
78143;SDS011;67394;52.522;13.622;2023-09-08T04:57:39;13.52;;;9.68;;
78143;SDS011;67394;52.522;13.622;2023-09-08T05:00:06;12.10;;;8.68;;
78143;SDS011;67394;52.522;13.622;2023-09-08T05:02:33;12.35;;;9.60;;
78143;SDS011;67394;52.522;13.622;2023-09-08T05:05:01;10.90;;;7.97;;
78143;SDS011;67394;52.522;13.622;2023-09-08T05:07:29;12.32;;;8.95;;
78143;SDS011;67394;52.522;13.622;2023-09-08T05:09:56;11.02;;;8.02;;
78143;SDS011;67394;52.522;13.622;2023-09-08T05:12:23;11.38;;;8.90;;
78143;SDS011;67394;52.522;13.622;2023-09-08T05:14:50;13.20;;;9.20;;
78143;SDS011;67394;52.522;13.622;2023-09-08T05:17:16;12.00;;;9.20;;
78143;SDS011;67394;52.522;13.622;2023-09-08T05:19:43;10.05;;;9.05;;
78143;SDS011;67394;52.522;13.622;2023-09-08T05:22:10;13.77;;;9.32;;
78143;SDS011;67394;52.522;13.622;2023-09-08T05:27:04;13.35;;;8.25;;
78143;SDS011;67394;52.522;13.622;2023-09-08T05:29:30;13.45;;;9.50;;
78143;SDS011;67394;52.522;13.622;2023-09-08T05:31:59;11.02;;;9.30;;
78143;SDS011;67394;52.522;13.622;2023-09-08T05:34:26;11.90;;;9.55;;
78143;SDS011;67394;52.522;13.622;2023-09-08T05:36:52;14.68;;;9.95;;
78143;SDS011;67394;52.522;13.622;2023-09-08T05:39:19;11.77;;;8.65;;
78143;SDS011;67394;52.522;13.622;2023-09-08T05:41:48;14.15;;;9.43;;
78143;SDS011;67394;52.522;13.622;2023-09-08T05:44:14;15.32;;;10.13;;
78143;SDS011;67394;52.522;13.622;2023-09-08T05:46:42;11.80;;;9.50;;
78143;SDS011;67394;52.522;13.622;2023-09-08T05:49:10;13.63;;;10.05;;
78143;SDS011;67394;52.522;13.622;2023-09-08T05:51:36;15.10;;;9.82;;
78143;SDS011;67394;52.522;13.622;2023-09-08T05:54:03;14.70;;;10.07;;
78143;SDS011;67394;52.522;13.622;2023-09-08T05:56:30;12.82;;;8.98;;
78143;SDS011;67394;52.522;13.622;2023-09-08T05:58:57;13.77;;;9.65;;
78143;SDS011;67394;52.522;13.622;2023-09-08T06:01:26;13.63;;;10.35;;
78143;SDS011;67394;52.522;13.622;2023-09-08T06:03:53;13.68;;;9.30;;
78143;SDS011;67394;52.522;13.622;2023-09-08T06:06:20;15.40;;;9.73;;
78143;SDS011;67394;52.522;13.622;2023-09-08T06:08:47;11.95;;;9.30;;
78143;SDS011;67394;52.522;13.622;2023-09-08T06:13:40;12.43;;;9.80;;
78143;SDS011;67394;52.522;13.622;2023-09-08T06:16:07;11.10;;;9.48;;
78143;SDS011;67394;52.522;13.622;2023-09-08T06:18:34;12.55;;;9.48;;
78143;SDS011;67394;52.522;13.622;2023-09-08T06:21:01;13.65;;;10.18;;
78143;SDS011;67394;52.522;13.622;2023-09-08T06:23:27;10.07;;;8.07;;
78143;SDS011;67394;52.522;13.622;2023-09-08T06:25:57;16.08;;;9.07;;
78143;SDS011;67394;52.522;13.622;2023-09-08T06:28:24;13.27;;;9.18;;
78143;SDS011;67394;52.522;13.622;2023-09-08T06:30:51;11.98;;;8.20;;
78143;SDS011;67394;52.522;13.622;2023-09-08T06:33:19;12.73;;;9.32;;
78143;SDS011;67394;52.522;13.622;2023-09-08T06:35:46;12.77;;;9.90;;
78143;SDS011;67394;52.522;13.622;2023-09-08T06:38:14;11.48;;;9.60;;
78143;SDS011;67394;52.522;13.622;2023-09-08T06:40:41;14.05;;;8.88;;
78143;SDS011;67394;52.522;13.622;2023-09-08T06:43:08;11.70;;;8.95;;
78143;SDS011;67394;52.522;13.622;2023-09-08T06:45:39;11.38;;;8.60;;
78143;SDS011;67394;52.522;13.622;2023-09-08T06:48:05;12.40;;;9.18;;
78143;SDS011;67394;52.522;13.622;2023-09-08T06:50:33;11.45;;;8.52;;
78143;SDS011;67394;52.522;13.622;2023-09-08T06:53:00;12.82;;;8.77;;
78143;SDS011;67394;52.522;13.622;2023-09-08T06:55:26;10.80;;;8.68;;
78143;SDS011;67394;52.522;13.622;2023-09-08T06:57:53;10.32;;;7.95;;
78143;SDS011;67394;52.522;13.622;2023-09-08T07:00:20;11.57;;;8.25;;
78143;SDS011;67394;52.522;13.622;2023-09-08T07:02:47;11.07;;;7.72;;
78143;SDS011;67394;52.522;13.622;2023-09-08T07:05:14;9.70;;;7.85;;
78143;SDS011;67394;52.522;13.622;2023-09-08T07:07:41;10.82;;;7.97;;
78143;SDS011;67394;52.522;13.622;2023-09-08T07:10:07;9.95;;;8.38;;
78143;SDS011;67394;52.522;13.622;2023-09-08T07:12:36;10.90;;;7.97;;
78143;SDS011;67394;52.522;13.622;2023-09-08T07:15:03;11.80;;;7.93;;
78143;SDS011;67394;52.522;13.622;2023-09-08T07:17:30;9.35;;;8.02;;
78143;SDS011;67394;52.522;13.622;2023-09-08T07:19:58;11.05;;;7.30;;
78143;SDS011;67394;52.522;13.622;2023-09-08T07:22:25;7.95;;;7.15;;
78143;SDS011;67394;52.522;13.622;2023-09-08T07:24:51;12.43;;;7.40;;
78143;SDS011;67394;52.522;13.622;2023-09-08T07:27:19;8.85;;;7.47;;
78143;SDS011;67394;52.522;13.622;2023-09-08T07:29:45;9.95;;;7.13;;
78143;SDS011;67394;52.522;13.622;2023-09-08T07:32:12;8.15;;;7.22;;
78143;SDS011;67394;52.522;13.622;2023-09-08T07:34:38;9.00;;;6.43;;
78143;SDS011;67394;52.522;13.622;2023-09-08T07:37:05;9.15;;;7.20;;
78143;SDS011;67394;52.522;13.622;2023-09-08T07:39:31;12.05;;;7.20;;
78143;SDS011;67394;52.522;13.622;2023-09-08T07:41:58;9.68;;;7.50;;
78143;SDS011;67394;52.522;13.622;2023-09-08T07:44:28;9.30;;;6.75;;
78143;SDS011;67394;52.522;13.622;2023-09-08T07:46:55;8.02;;;6.55;;
78143;SDS011;67394;52.522;13.622;2023-09-08T07:49:21;9.65;;;6.90;;
78143;SDS011;67394;52.522;13.622;2023-09-08T07:54:17;8.98;;;6.80;;
78143;SDS011;67394;52.522;13.622;2023-09-08T07:56:46;9.85;;;6.93;;
78143;SDS011;67394;52.522;13.622;2023-09-08T08:01:39;7.60;;;6.13;;
78143;SDS011;67394;52.522;13.622;2023-09-08T08:04:05;9.60;;;7.00;;
78143;SDS011;67394;52.522;13.622;2023-09-08T08:06:32;9.75;;;6.65;;
78143;SDS011;67394;52.522;13.622;2023-09-08T08:11:28;6.90;;;5.80;;
78143;SDS011;67394;52.522;13.622;2023-09-08T08:13:56;9.60;;;5.75;;
78143;SDS011;67394;52.522;13.622;2023-09-08T08:16:22;8.70;;;5.95;;
78143;SDS011;67394;52.522;13.622;2023-09-08T08:18:49;6.68;;;5.35;;
78143;SDS011;67394;52.522;13.622;2023-09-08T08:21:16;7.20;;;5.47;;
78143;SDS011;67394;52.522;13.622;2023-09-08T08:23:43;6.10;;;5.50;;
78143;SDS011;67394;52.522;13.622;2023-09-08T08:26:09;8.57;;;5.90;;
78143;SDS011;67394;52.522;13.622;2023-09-08T08:28:36;7.30;;;5.57;;
78143;SDS011;67394;52.522;13.622;2023-09-08T08:31:03;8.30;;;5.35;;
78143;SDS011;67394;52.522;13.622;2023-09-08T08:33:30;5.82;;;5.20;;
78143;SDS011;67394;52.522;13.622;2023-09-08T08:35:56;6.03;;;5.00;;
78143;SDS011;67394;52.522;13.622;2023-09-08T08:38:23;6.28;;;5.38;;
78143;SDS011;67394;52.522;13.622;2023-09-08T08:40:49;6.85;;;5.90;;
78143;SDS011;67394;52.522;13.622;2023-09-08T08:45:44;7.07;;;4.90;;
78143;SDS011;67394;52.522;13.622;2023-09-08T08:48:15;6.57;;;5.30;;
78143;SDS011;67394;52.522;13.622;2023-09-08T08:50:45;7.95;;;5.40;;
78143;SDS011;67394;52.522;13.622;2023-09-08T08:53:14;8.25;;;5.20;;
78143;SDS011;67394;52.522;13.622;2023-09-08T08:55:43;5.57;;;5.00;;
78143;SDS011;67394;52.522;13.622;2023-09-08T08:58:10;6.18;;;5.00;;
78143;SDS011;67394;52.522;13.622;2023-09-08T09:00:38;5.70;;;4.97;;
78143;SDS011;67394;52.522;13.622;2023-09-08T09:03:04;6.25;;;4.40;;
78143;SDS011;67394;52.522;13.622;2023-09-08T09:05:41;5.22;;;4.10;;
78143;SDS011;67394;52.522;13.622;2023-09-08T09:08:14;6.97;;;4.78;;
78143;SDS011;67394;52.522;13.622;2023-09-08T09:10:42;5.88;;;5.00;;
78143;SDS011;67394;52.522;13.622;2023-09-08T09:15:35;5.97;;;4.65;;
78143;SDS011;67394;52.522;13.622;2023-09-08T09:18:06;6.10;;;4.65;;
78143;SDS011;67394;52.522;13.622;2023-09-08T09:20:34;6.43;;;4.57;;
78143;SDS011;67394;52.522;13.622;2023-09-08T09:23:00;4.65;;;4.18;;
78143;SDS011;67394;52.522;13.622;2023-09-08T09:25:28;6.30;;;4.47;;
78143;SDS011;67394;52.522;13.622;2023-09-08T09:27:57;7.32;;;4.85;;
78143;SDS011;67394;52.522;13.622;2023-09-08T09:30:26;5.97;;;4.80;;
78143;SDS011;67394;52.522;13.622;2023-09-08T09:33:00;6.38;;;5.40;;
78143;SDS011;67394;52.522;13.622;2023-09-08T09:38:12;5.50;;;4.40;;
78143;SDS011;67394;52.522;13.622;2023-09-08T09:40:40;5.90;;;4.60;;
78143;SDS011;67394;52.522;13.622;2023-09-08T09:43:07;4.97;;;4.28;;
78143;SDS011;67394;52.522;13.622;2023-09-08T09:45:35;5.70;;;4.63;;
78143;SDS011;67394;52.522;13.622;2023-09-08T09:48:07;6.68;;;4.70;;
78143;SDS011;67394;52.522;13.622;2023-09-08T09:50:36;6.43;;;5.15;;
78143;SDS011;67394;52.522;13.622;2023-09-08T09:53:11;7.65;;;5.13;;
78143;SDS011;67394;52.522;13.622;2023-09-08T09:55:40;8.02;;;4.85;;
78143;SDS011;67394;52.522;13.622;2023-09-08T09:58:09;5.90;;;5.20;;
78143;SDS011;67394;52.522;13.622;2023-09-08T10:00:38;6.35;;;5.03;;
78143;SDS011;67394;52.522;13.622;2023-09-08T10:03:05;6.35;;;5.13;;
78143;SDS011;67394;52.522;13.622;2023-09-08T10:05:33;5.97;;;5.05;;
78143;SDS011;67394;52.522;13.622;2023-09-08T10:08:00;6.47;;;5.60;;
78143;SDS011;67394;52.522;13.622;2023-09-08T10:10:27;5.80;;;5.10;;
78143;SDS011;67394;52.522;13.622;2023-09-08T10:12:57;6.22;;;5.30;;
78143;SDS011;67394;52.522;13.622;2023-09-08T10:15:27;6.07;;;4.65;;
78143;SDS011;67394;52.522;13.622;2023-09-08T10:17:56;6.72;;;5.22;;
78143;SDS011;67394;52.522;13.622;2023-09-08T10:20:24;6.00;;;4.88;;
78143;SDS011;67394;52.522;13.622;2023-09-08T10:22:56;6.72;;;5.28;;
78143;SDS011;67394;52.522;13.622;2023-09-08T10:25:49;5.97;;;4.55;;
78143;SDS011;67394;52.522;13.622;2023-09-08T10:28:19;6.05;;;4.63;;
78143;SDS011;67394;52.522;13.622;2023-09-08T10:30:46;5.35;;;4.60;;
78143;SDS011;67394;52.522;13.622;2023-09-08T10:33:14;7.28;;;5.25;;
78143;SDS011;67394;52.522;13.622;2023-09-08T10:35:42;6.85;;;5.10;;
78143;SDS011;67394;52.522;13.622;2023-09-08T10:38:22;6.40;;;4.82;;
78143;SDS011;67394;52.522;13.622;2023-09-08T10:40:54;5.32;;;4.57;;
78143;SDS011;67394;52.522;13.622;2023-09-08T10:43:47;5.68;;;5.10;;
78143;SDS011;67394;52.522;13.622;2023-09-08T10:46:22;6.70;;;4.80;;
78143;SDS011;67394;52.522;13.622;2023-09-08T10:48:50;7.38;;;5.05;;
78143;SDS011;67394;52.522;13.622;2023-09-08T10:51:19;5.50;;;5.00;;
78143;SDS011;67394;52.522;13.622;2023-09-08T10:53:46;5.72;;;4.40;;
78143;SDS011;67394;52.522;13.622;2023-09-08T10:56:13;5.95;;;5.20;;
78143;SDS011;67394;52.522;13.622;2023-09-08T10:58:43;5.50;;;4.90;;
78143;SDS011;67394;52.522;13.622;2023-09-08T11:01:17;5.72;;;4.68;;
78143;SDS011;67394;52.522;13.622;2023-09-08T11:03:45;5.00;;;4.40;;
78143;SDS011;67394;52.522;13.622;2023-09-08T11:06:15;5.80;;;4.70;;
78143;SDS011;67394;52.522;13.622;2023-09-08T11:08:43;6.90;;;5.45;;
78143;SDS011;67394;52.522;13.622;2023-09-08T11:11:11;5.90;;;5.18;;
78143;SDS011;67394;52.522;13.622;2023-09-08T11:13:39;5.90;;;4.47;;
78143;SDS011;67394;52.522;13.622;2023-09-08T11:16:06;6.78;;;5.03;;
78143;SDS011;67394;52.522;13.622;2023-09-08T11:18:33;6.47;;;4.65;;
78143;SDS011;67394;52.522;13.622;2023-09-08T11:21:02;5.78;;;5.15;;
78143;SDS011;67394;52.522;13.622;2023-09-08T11:23:33;6.43;;;5.05;;
78143;SDS011;67394;52.522;13.622;2023-09-08T11:26:00;6.75;;;5.13;;
78143;SDS011;67394;52.522;13.622;2023-09-08T11:28:27;5.82;;;5.13;;
78143;SDS011;67394;52.522;13.622;2023-09-08T11:30:54;7.25;;;5.30;;
78143;SDS011;67394;52.522;13.622;2023-09-08T11:33:22;7.82;;;5.25;;
78143;SDS011;67394;52.522;13.622;2023-09-08T11:35:50;6.38;;;5.63;;
78143;SDS011;67394;52.522;13.622;2023-09-08T11:38:17;6.90;;;5.38;;
78143;SDS011;67394;52.522;13.622;2023-09-08T11:40:44;7.25;;;5.55;;
78143;SDS011;67394;52.522;13.622;2023-09-08T11:43:11;5.53;;;5.00;;
78143;SDS011;67394;52.522;13.622;2023-09-08T11:45:39;6.38;;;5.25;;
78143;SDS011;67394;52.522;13.622;2023-09-08T11:48:09;6.20;;;4.93;;
78143;SDS011;67394;52.522;13.622;2023-09-08T11:50:36;6.10;;;4.82;;
78143;SDS011;67394;52.522;13.622;2023-09-08T11:53:02;6.97;;;6.03;;
78143;SDS011;67394;52.522;13.622;2023-09-08T11:55:29;7.18;;;6.15;;
78143;SDS011;67394;52.522;13.622;2023-09-08T11:57:55;6.43;;;4.88;;
78143;SDS011;67394;52.522;13.622;2023-09-08T12:00:23;5.40;;;4.90;;
78143;SDS011;67394;52.522;13.622;2023-09-08T12:02:51;5.22;;;4.60;;
78143;SDS011;67394;52.522;13.622;2023-09-08T12:05:21;5.50;;;5.00;;
78143;SDS011;67394;52.522;13.622;2023-09-08T12:07:50;6.05;;;5.07;;
78143;SDS011;67394;52.522;13.622;2023-09-08T12:10:21;5.35;;;4.60;;
78143;SDS011;67394;52.522;13.622;2023-09-08T12:12:49;5.70;;;5.15;;
78143;SDS011;67394;52.522;13.622;2023-09-08T12:15:52;5.65;;;5.07;;
78143;SDS011;67394;52.522;13.622;2023-09-08T12:18:12;5.95;;;5.10;;
78143;SDS011;67394;52.522;13.622;2023-09-08T12:20:39;6.10;;;5.35;;
78143;SDS011;67394;52.522;13.622;2023-09-08T12:23:20;7.80;;;5.35;;
78143;SDS011;67394;52.522;13.622;2023-09-08T12:25:49;6.03;;;4.68;;
78143;SDS011;67394;52.522;13.622;2023-09-08T12:28:20;5.80;;;5.00;;
78143;SDS011;67394;52.522;13.622;2023-09-08T12:30:56;6.65;;;4.85;;
78143;SDS011;67394;52.522;13.622;2023-09-08T12:33:23;5.45;;;4.47;;
78143;SDS011;67394;52.522;13.622;2023-09-08T12:35:52;5.93;;;4.88;;
78143;SDS011;67394;52.522;13.622;2023-09-08T12:38:18;6.13;;;5.40;;
78143;SDS011;67394;52.522;13.622;2023-09-08T12:40:46;5.93;;;5.07;;
78143;SDS011;67394;52.522;13.622;2023-09-08T12:43:12;5.53;;;5.03;;
78143;SDS011;67394;52.522;13.622;2023-09-08T12:45:52;6.95;;;5.05;;
78143;SDS011;67394;52.522;13.622;2023-09-08T12:48:18;5.95;;;5.30;;
78143;SDS011;67394;52.522;13.622;2023-09-08T12:50:45;5.53;;;5.00;;
78143;SDS011;67394;52.522;13.622;2023-09-08T12:53:12;5.95;;;4.80;;
78143;SDS011;67394;52.522;13.622;2023-09-08T12:55:39;5.22;;;4.70;;
78143;SDS011;67394;52.522;13.622;2023-09-08T13:00:32;5.68;;;5.03;;
78143;SDS011;67394;52.522;13.622;2023-09-08T13:02:58;5.13;;;4.40;;
78143;SDS011;67394;52.522;13.622;2023-09-08T13:05:25;5.47;;;4.97;;
78143;SDS011;67394;52.522;13.622;2023-09-08T13:07:53;6.80;;;5.18;;
78143;SDS011;67394;52.522;13.622;2023-09-08T13:10:21;7.90;;;4.90;;
78143;SDS011;67394;52.522;13.622;2023-09-08T13:12:47;6.18;;;4.95;;
78143;SDS011;67394;52.522;13.622;2023-09-08T13:15:15;7.70;;;5.10;;
78143;SDS011;67394;52.522;13.622;2023-09-08T13:17:42;6.45;;;4.93;;
78143;SDS011;67394;52.522;13.622;2023-09-08T13:20:09;5.82;;;4.20;;
78143;SDS011;67394;52.522;13.622;2023-09-08T13:22:36;5.80;;;5.20;;
78143;SDS011;67394;52.522;13.622;2023-09-08T13:25:03;6.75;;;4.90;;
78143;SDS011;67394;52.522;13.622;2023-09-08T13:27:30;6.68;;;5.15;;
78143;SDS011;67394;52.522;13.622;2023-09-08T13:30:10;7.03;;;4.57;;
78143;SDS011;67394;52.522;13.622;2023-09-08T13:32:39;5.60;;;4.60;;
78143;SDS011;67394;52.522;13.622;2023-09-08T13:35:07;5.68;;;4.65;;
78143;SDS011;67394;52.522;13.622;2023-09-08T13:37:35;6.43;;;4.80;;
78143;SDS011;67394;52.522;13.622;2023-09-08T13:40:02;5.20;;;4.68;;
78143;SDS011;67394;52.522;13.622;2023-09-08T13:42:30;5.75;;;4.43;;
78143;SDS011;67394;52.522;13.622;2023-09-08T13:44:56;6.50;;;4.75;;
78143;SDS011;67394;52.522;13.622;2023-09-08T13:47:23;5.45;;;4.88;;
78143;SDS011;67394;52.522;13.622;2023-09-08T13:49:50;5.43;;;4.38;;
78143;SDS011;67394;52.522;13.622;2023-09-08T13:52:19;6.32;;;5.22;;
78143;SDS011;67394;52.522;13.622;2023-09-08T13:54:48;5.18;;;4.50;;
78143;SDS011;67394;52.522;13.622;2023-09-08T13:57:37;6.90;;;6.05;;
78143;SDS011;67394;52.522;13.622;2023-09-08T14:00:07;5.50;;;4.65;;
78143;SDS011;67394;52.522;13.622;2023-09-08T14:02:35;6.28;;;5.25;;
78143;SDS011;67394;52.522;13.622;2023-09-08T14:05:09;5.45;;;4.50;;
78143;SDS011;67394;52.522;13.622;2023-09-08T14:07:37;6.25;;;5.03;;
78143;SDS011;67394;52.522;13.622;2023-09-08T14:10:12;6.78;;;4.97;;
78143;SDS011;67394;52.522;13.622;2023-09-08T14:12:54;5.88;;;4.75;;
78143;SDS011;67394;52.522;13.622;2023-09-08T14:15:21;6.07;;;4.95;;
78143;SDS011;67394;52.522;13.622;2023-09-08T14:17:49;5.43;;;4.68;;
78143;SDS011;67394;52.522;13.622;2023-09-08T14:20:16;8.55;;;5.43;;
78143;SDS011;67394;52.522;13.622;2023-09-08T14:22:42;5.50;;;4.93;;
78143;SDS011;67394;52.522;13.622;2023-09-08T14:27:36;5.82;;;4.78;;
78143;SDS011;67394;52.522;13.622;2023-09-08T14:30:04;6.85;;;5.03;;
78143;SDS011;67394;52.522;13.622;2023-09-08T14:32:32;5.75;;;4.93;;
78143;SDS011;67394;52.522;13.622;2023-09-08T14:37:24;5.55;;;4.95;;
78143;SDS011;67394;52.522;13.622;2023-09-08T14:39:51;6.90;;;5.43;;
78143;SDS011;67394;52.522;13.622;2023-09-08T14:42:18;8.07;;;4.75;;
78143;SDS011;67394;52.522;13.622;2023-09-08T14:47:10;5.35;;;4.75;;
78143;SDS011;67394;52.522;13.622;2023-09-08T14:49:37;5.78;;;4.57;;
78143;SDS011;67394;52.522;13.622;2023-09-08T14:52:03;5.75;;;4.88;;
78143;SDS011;67394;52.522;13.622;2023-09-08T14:56:56;5.28;;;4.50;;
78143;SDS011;67394;52.522;13.622;2023-09-08T14:59:23;6.72;;;5.00;;
78143;SDS011;67394;52.522;13.622;2023-09-08T15:04:16;6.93;;;4.68;;
78143;SDS011;67394;52.522;13.622;2023-09-08T15:06:42;7.00;;;5.20;;
78143;SDS011;67394;52.522;13.622;2023-09-08T15:09:09;6.32;;;4.85;;
78143;SDS011;67394;52.522;13.622;2023-09-08T15:11:36;5.28;;;4.72;;
78143;SDS011;67394;52.522;13.622;2023-09-08T15:16:29;5.97;;;5.30;;
78143;SDS011;67394;52.522;13.622;2023-09-08T15:18:56;6.10;;;5.03;;
78143;SDS011;67394;52.522;13.622;2023-09-08T15:21:24;6.90;;;4.68;;
78143;SDS011;67394;52.522;13.622;2023-09-08T15:23:51;7.07;;;4.85;;
78143;SDS011;67394;52.522;13.622;2023-09-08T15:26:18;6.00;;;4.80;;
78143;SDS011;67394;52.522;13.622;2023-09-08T15:28:45;5.97;;;5.07;;